createdAt,value
2019-05-26T00:00:51.318Z,16.15
2019-05-26T00:03:19.843Z,16.11
2019-05-26T00:05:48.292Z,16.05
2019-05-26T00:08:16.762Z,15.96
2019-05-26T00:10:45.192Z,15.76
2019-05-26T00:13:13.634Z,15.74
2019-05-26T00:15:42.068Z,15.55
2019-05-26T00:18:10.507Z,15.52
2019-05-26T00:20:38.939Z,15.55
2019-05-26T00:23:07.380Z,15.41
2019-05-26T00:25:35.889Z,15.43
2019-05-26T00:28:04.346Z,15.36
2019-05-26T00:30:32.827Z,15.39
2019-05-26T00:33:01.285Z,15.47
2019-05-26T00:35:29.702Z,15.55
2019-05-26T00:37:59.817Z,15.63
2019-05-26T00:40:28.317Z,15.69
2019-05-26T00:43:02.774Z,15.72
2019-05-26T00:45:30.536Z,15.87
2019-05-26T00:47:58.920Z,15.97
2019-05-26T00:50:27.417Z,16.07
2019-05-26T00:52:56.879Z,16.06
2019-05-26T00:55:25.536Z,16.32
2019-05-26T00:57:54.056Z,16.55
2019-05-26T01:00:42.713Z,16.63
2019-05-26T01:03:13.150Z,16.48
2019-05-26T01:05:41.671Z,16.40
2019-05-26T01:08:10.223Z,16.47
2019-05-26T01:10:38.773Z,16.52
2019-05-26T01:13:07.415Z,16.17
2019-05-26T01:15:35.949Z,16.05
2019-05-26T01:18:05.300Z,15.86
2019-05-26T01:20:33.752Z,15.78
2019-05-26T01:23:03.899Z,15.58
2019-05-26T01:25:32.489Z,15.53
2019-05-26T01:28:00.970Z,15.50
2019-05-26T01:30:36.966Z,15.52
2019-05-26T01:33:06.445Z,15.57
2019-05-26T01:35:37.532Z,15.54
2019-05-26T01:38:22.564Z,15.49
2019-05-26T01:40:43.549Z,15.39
2019-05-26T01:43:12.212Z,15.34
2019-05-26T01:45:40.731Z,15.35
2019-05-26T01:48:09.311Z,15.23
2019-05-26T01:50:37.898Z,15.31
2019-05-26T01:53:07.101Z,15.33
2019-05-26T01:55:35.742Z,15.38
2019-05-26T01:58:04.788Z,15.42
2019-05-26T02:00:33.375Z,15.41
2019-05-26T02:03:01.802Z,15.48
2019-05-26T02:05:30.326Z,15.43
2019-05-26T02:07:58.846Z,15.45
2019-05-26T02:10:27.275Z,15.34
2019-05-26T02:12:55.756Z,15.39
2019-05-26T02:15:24.879Z,15.45
2019-05-26T02:17:53.321Z,15.44
2019-05-26T02:20:21.876Z,15.36
2019-05-26T02:22:50.318Z,15.37
2019-05-26T02:25:19.391Z,15.47
2019-05-26T02:27:47.856Z,15.61
2019-05-26T02:30:16.833Z,15.56
2019-05-26T02:32:45.254Z,15.63
2019-05-26T02:35:14.015Z,15.66
2019-05-26T02:37:42.571Z,15.71
2019-05-26T02:40:12.822Z,15.69
2019-05-26T02:42:41.277Z,15.61
2019-05-26T02:45:13.869Z,15.58
2019-05-26T02:47:42.314Z,15.58
2019-05-26T02:50:11.698Z,15.55
2019-05-26T02:52:40.150Z,15.54
2019-05-26T02:55:09.340Z,15.33
2019-05-26T02:57:37.953Z,15.30
2019-05-26T03:00:09.363Z,15.34
2019-05-26T03:02:37.945Z,15.39
2019-05-26T03:05:09.216Z,15.32
2019-05-26T03:07:41.040Z,15.13
2019-05-26T03:10:09.813Z,15.18
2019-05-26T03:12:41.305Z,15.31
2019-05-26T03:15:12.593Z,15.38
2019-05-26T03:17:42.675Z,15.46
2019-05-26T03:20:13.599Z,15.32
2019-05-26T03:22:43.027Z,15.25
2019-05-26T03:25:14.586Z,15.15
2019-05-26T03:27:43.024Z,15.18
2019-05-26T03:30:11.580Z,15.18
2019-05-26T03:32:40.055Z,15.33
2019-05-26T03:35:09.658Z,15.40
2019-05-26T03:37:38.143Z,15.51
2019-05-26T03:40:10.335Z,15.40
2019-05-26T03:42:38.792Z,15.38
2019-05-26T03:45:08.338Z,15.49
2019-05-26T03:47:36.754Z,15.59
2019-05-26T03:50:08.690Z,15.59
2019-05-26T03:52:38.741Z,15.70
2019-05-26T03:55:08.139Z,15.55
2019-05-26T03:57:36.591Z,15.53
2019-05-26T04:00:08.276Z,15.39
2019-05-26T04:02:36.781Z,15.43
2019-05-26T04:05:09.638Z,15.31
2019-05-26T04:07:38.141Z,15.42
2019-05-26T04:10:07.978Z,15.40
2019-05-26T04:12:36.400Z,15.39
2019-05-26T04:15:07.982Z,15.26
2019-05-26T04:17:36.510Z,15.25
2019-05-26T04:20:06.306Z,15.30
2019-05-26T04:22:34.736Z,15.20
2019-05-26T04:25:04.777Z,15.18
2019-05-26T04:27:33.219Z,15.17
2019-05-26T04:30:01.659Z,15.22
2019-05-26T04:32:30.091Z,15.30
2019-05-26T04:34:58.520Z,14.91
2019-05-26T04:37:26.969Z,15.17
2019-05-26T04:39:55.402Z,15.07
2019-05-26T04:42:23.851Z,15.06
2019-05-26T04:44:52.293Z,15.22
2019-05-26T04:47:20.721Z,15.21
2019-05-26T04:49:49.159Z,15.14
2019-05-26T04:52:17.585Z,15.16
2019-05-26T04:54:46.094Z,14.98
2019-05-26T04:57:14.529Z,15.14
2019-05-26T04:59:42.980Z,15.33
2019-05-26T05:02:11.473Z,15.50
2019-05-26T05:04:39.912Z,15.45
2019-05-26T05:07:08.335Z,15.44
2019-05-26T05:09:36.770Z,15.33
2019-05-26T05:12:05.665Z,15.20
2019-05-26T05:14:34.087Z,15.25
2019-05-26T05:17:02.553Z,15.31
2019-05-26T05:19:30.975Z,15.64
2019-05-26T05:22:05.735Z,15.82
2019-05-26T05:24:34.134Z,15.78
2019-05-26T05:27:02.575Z,15.69
2019-05-26T05:29:31.049Z,15.73
2019-05-26T05:31:59.476Z,15.68
2019-05-26T05:34:27.942Z,15.72
2019-05-26T05:36:56.388Z,15.60
2019-05-26T05:39:24.816Z,15.57
2019-05-26T05:41:53.249Z,15.52
2019-05-26T05:44:21.689Z,15.37
2019-05-26T05:46:50.159Z,15.41
2019-05-26T05:49:18.596Z,15.81
2019-05-26T05:51:47.025Z,15.96
2019-05-26T05:54:15.449Z,15.99
2019-05-26T05:56:43.897Z,15.95
2019-05-26T05:59:12.374Z,16.12
2019-05-26T06:01:40.816Z,16.10
2019-05-26T06:04:09.239Z,16.14
2019-05-26T06:06:37.690Z,16.14
2019-05-26T06:09:07.247Z,15.99
2019-05-26T06:11:35.689Z,16.29
2019-05-26T06:14:04.369Z,16.23
2019-05-26T06:16:32.812Z,16.39
2019-05-26T06:19:02.906Z,16.47
2019-05-26T06:21:31.336Z,16.50
2019-05-26T06:23:59.759Z,16.61
2019-05-26T06:26:28.228Z,16.80
2019-05-26T06:28:56.725Z,16.72
2019-05-26T06:31:25.174Z,16.98
2019-05-26T06:33:53.594Z,16.98
2019-05-26T06:36:22.066Z,16.87
2019-05-26T06:38:50.474Z,16.99
2019-05-26T06:41:32.420Z,16.94
2019-05-26T06:43:49.197Z,16.61
2019-05-26T06:46:17.629Z,16.72
2019-05-26T06:48:46.095Z,17.13
2019-05-26T06:51:14.593Z,17.27
2019-05-26T06:53:43.068Z,17.10
2019-05-26T06:56:11.492Z,17.43
2019-05-26T06:58:39.944Z,17.52
2019-05-26T07:01:10.022Z,17.35
2019-05-26T07:03:38.470Z,17.25
2019-05-26T07:06:06.885Z,17.37
2019-05-26T07:08:35.523Z,17.55
2019-05-26T07:11:06.957Z,17.34
2019-05-26T07:13:35.424Z,17.52
2019-05-26T07:16:04.523Z,18.02
2019-05-26T07:18:34.646Z,17.98
2019-05-26T07:21:05.910Z,18.04
2019-05-26T07:23:34.367Z,18.35
2019-05-26T07:26:02.818Z,18.33
2019-05-26T07:28:31.309Z,18.41
2019-05-26T07:30:59.763Z,18.37
2019-05-26T07:33:43.252Z,18.07
2019-05-26T07:36:11.923Z,18.12
2019-05-26T07:38:40.414Z,18.13
2019-05-26T07:41:10.541Z,18.29
2019-05-26T07:43:39.024Z,18.40
2019-05-26T07:46:07.496Z,18.79
2019-05-26T07:48:36.350Z,18.92
2019-05-26T07:51:05.019Z,19.49
2019-05-26T07:53:33.465Z,19.24
2019-05-26T07:56:01.911Z,19.29
2019-05-26T07:58:31.962Z,19.71
2019-05-26T08:01:00.393Z,19.92
2019-05-26T08:03:28.877Z,20.17
2019-05-26T08:05:57.299Z,20.40
2019-05-26T08:08:25.729Z,20.70
2019-05-26T08:10:54.168Z,20.31
2019-05-26T08:13:22.605Z,20.05
2019-05-26T08:15:51.105Z,20.33
2019-05-26T08:18:19.608Z,20.54
2019-05-26T08:20:48.061Z,20.42
2019-05-26T08:23:16.503Z,20.55
2019-05-26T08:25:45.010Z,20.18
2019-05-26T08:28:13.996Z,20.28
2019-05-26T08:30:42.424Z,20.72
2019-05-26T08:33:10.873Z,20.61
2019-05-26T08:35:39.460Z,20.88
2019-05-26T08:38:07.877Z,20.83
2019-05-26T08:40:36.319Z,21.04
2019-05-26T08:43:04.892Z,20.99
2019-05-26T08:45:33.319Z,20.74
2019-05-26T08:48:01.733Z,20.35
2019-05-26T08:50:33.941Z,20.06
2019-05-26T08:53:00.379Z,20.26
2019-05-26T08:55:28.874Z,20.64
2019-05-26T08:57:57.453Z,20.97
2019-05-26T09:00:26.846Z,20.55
2019-05-26T09:02:55.275Z,20.57
2019-05-26T09:05:23.735Z,20.47
2019-05-26T09:07:52.164Z,20.35
2019-05-26T09:10:23.426Z,20.58
2019-05-26T09:13:00.943Z,20.74
2019-05-26T09:15:22.153Z,20.38
2019-05-26T09:17:50.586Z,20.65
2019-05-26T09:20:19.451Z,20.76
2019-05-26T09:22:47.885Z,20.91
2019-05-26T09:25:16.400Z,20.75
2019-05-26T09:27:44.828Z,21.13
2019-05-26T09:30:14.358Z,21.04
2019-05-26T09:32:44.732Z,20.87
2019-05-26T09:35:13.662Z,20.73
2019-05-26T09:37:42.115Z,20.81
2019-05-26T09:40:13.076Z,21.28
2019-05-26T09:42:41.516Z,21.27
2019-05-26T09:45:10.472Z,21.17
2019-05-26T09:47:39.248Z,21.11
2019-05-26T09:50:08.708Z,21.33
2019-05-26T09:52:37.510Z,21.14
2019-05-26T09:55:07.933Z,21.19
2019-05-26T09:57:39.911Z,21.33
2019-05-26T10:00:09.830Z,21.39
2019-05-26T10:02:38.855Z,21.87
2019-05-26T10:05:11.005Z,21.65
2019-05-26T10:07:40.589Z,21.91
2019-05-26T10:10:09.748Z,21.57
2019-05-26T10:12:38.292Z,21.67
2019-05-26T10:15:07.801Z,21.42
2019-05-26T10:17:38.094Z,21.41
2019-05-26T10:20:13.465Z,21.96
2019-05-26T10:22:41.912Z,22.14
2019-05-26T10:25:10.858Z,22.04
2019-05-26T10:27:39.356Z,21.77
2019-05-26T10:30:09.789Z,22.22
2019-05-26T10:32:38.201Z,22.17
2019-05-26T10:35:07.878Z,21.86
2019-05-26T10:37:36.500Z,22.27
2019-05-26T10:40:06.838Z,22.40
2019-05-26T10:42:35.335Z,22.24
2019-05-26T10:45:08.289Z,22.63
2019-05-26T10:47:36.775Z,22.52
2019-05-26T10:50:09.674Z,22.84
2019-05-26T10:52:38.183Z,22.51
2019-05-26T10:55:08.749Z,22.06
2019-05-26T10:57:43.161Z,22.40
2019-05-26T11:00:11.333Z,21.95
2019-05-26T11:02:39.709Z,22.38
2019-05-26T11:05:09.739Z,22.53
2019-05-26T11:07:38.166Z,22.41
2019-05-26T11:10:07.634Z,22.37
2019-05-26T11:12:36.121Z,22.45
2019-05-26T11:15:07.604Z,22.11
2019-05-26T11:17:36.105Z,22.40
2019-05-26T11:20:06.769Z,22.30
2019-05-26T11:22:35.174Z,22.26
2019-05-26T11:25:04.949Z,22.63
2019-05-26T11:27:33.368Z,23.03
2019-05-26T11:30:01.875Z,22.75
2019-05-26T11:32:30.289Z,22.79
2019-05-26T11:35:01.746Z,22.82
2019-05-26T11:37:28.848Z,22.84
2019-05-26T11:39:57.290Z,22.69
2019-05-26T11:42:25.710Z,22.70
2019-05-26T11:44:54.166Z,23.12
2019-05-26T11:47:22.613Z,23.24
2019-05-26T11:49:51.181Z,23.11
2019-05-26T11:52:20.425Z,23.30
2019-05-26T11:54:48.966Z,23.37
2019-05-26T11:57:17.379Z,23.40
2019-05-26T11:59:47.278Z,23.26
2019-05-26T12:02:16.007Z,23.14
2019-05-26T12:04:44.437Z,23.33
2019-05-26T12:07:12.884Z,23.23
2019-05-26T12:09:42.542Z,23.81
2019-05-26T12:12:10.961Z,23.15
2019-05-26T12:14:39.380Z,23.32
2019-05-26T12:17:07.964Z,22.79
2019-05-26T12:19:36.388Z,23.24
2019-05-26T12:22:05.077Z,23.24
2019-05-26T12:24:33.512Z,23.21
2019-05-26T12:27:01.991Z,23.58
2019-05-26T12:29:30.399Z,23.21
2019-05-26T12:31:58.876Z,23.49
2019-05-26T12:34:27.311Z,23.36
2019-05-26T12:36:55.725Z,23.66
2019-05-26T12:39:24.160Z,23.81
2019-05-26T12:41:52.594Z,23.65
2019-05-26T12:44:21.004Z,23.92
2019-05-26T12:46:49.438Z,24.04
2019-05-26T12:49:17.849Z,24.89
2019-05-26T12:51:46.272Z,24.57
2019-05-26T12:54:14.696Z,24.32
2019-05-26T12:56:43.132Z,24.11
2019-05-26T12:59:11.543Z,24.10
2019-05-26T13:01:40.057Z,24.34
2019-05-26T13:04:08.484Z,24.23
2019-05-26T13:06:36.910Z,24.38
2019-05-26T13:09:08.382Z,23.92
2019-05-26T13:11:36.831Z,23.80
2019-05-26T13:14:05.580Z,23.63
2019-05-26T13:16:35.964Z,23.81
2019-05-26T13:19:04.795Z,23.88
2019-05-26T13:21:33.229Z,23.56
2019-05-26T13:24:01.660Z,23.99
2019-05-26T13:26:30.094Z,23.54
2019-05-26T13:28:58.529Z,23.58
2019-05-26T13:31:26.950Z,23.81
2019-05-26T13:33:55.380Z,23.63
2019-05-26T13:36:23.789Z,23.58
2019-05-26T13:38:52.232Z,23.12
2019-05-26T13:41:20.651Z,24.04
2019-05-26T13:43:49.111Z,23.88
2019-05-26T13:46:17.538Z,23.90
2019-05-26T13:48:45.971Z,23.78
2019-05-26T13:51:14.402Z,23.47
2019-05-26T13:53:42.851Z,23.40
2019-05-26T13:56:11.263Z,23.53
2019-05-26T13:58:39.766Z,23.44
2019-05-26T14:01:09.236Z,23.31
2019-05-26T14:03:37.686Z,23.24
2019-05-26T14:06:06.139Z,23.32
2019-05-26T14:08:34.576Z,23.02
2019-05-26T14:11:02.989Z,23.03
2019-05-26T14:13:31.509Z,23.13
2019-05-26T14:16:01.436Z,23.04
2019-05-26T14:18:31.807Z,23.00
2019-05-26T14:21:00.227Z,23.12
2019-05-26T14:23:34.662Z,23.05
2019-05-26T14:26:02.356Z,23.18
2019-05-26T14:28:30.738Z,23.07
2019-05-26T14:30:59.157Z,22.92
2019-05-26T14:33:27.596Z,22.86
2019-05-26T14:35:56.031Z,23.00
2019-05-26T14:38:24.481Z,23.28
2019-05-26T14:40:52.958Z,23.28
2019-05-26T14:43:21.399Z,23.46
2019-05-26T14:45:53.655Z,23.38
2019-05-26T14:48:19.995Z,23.60
2019-05-26T14:50:48.456Z,23.56
2019-05-26T14:53:16.876Z,23.66
2019-05-26T14:55:47.980Z,23.66
2019-05-26T14:58:16.924Z,23.74
2019-05-26T15:00:45.422Z,23.86
2019-05-26T15:03:13.857Z,23.60
2019-05-26T15:05:42.271Z,23.47
2019-05-26T15:08:10.736Z,23.55
2019-05-26T15:10:39.176Z,23.58
2019-05-26T15:13:07.678Z,23.71
2019-05-26T15:15:36.124Z,23.40
2019-05-26T15:18:04.695Z,23.35
2019-05-26T15:20:33.157Z,23.32
2019-05-26T15:23:01.656Z,23.29
2019-05-26T15:25:30.121Z,23.41
2019-05-26T15:27:58.588Z,23.15
2019-05-26T15:30:27.023Z,23.52
2019-05-26T15:32:55.478Z,23.61
2019-05-26T15:35:24.011Z,23.55
2019-05-26T15:37:52.441Z,23.40
2019-05-26T15:40:20.931Z,23.41
2019-05-26T15:42:49.317Z,23.42
2019-05-26T15:45:18.089Z,23.45
2019-05-26T15:47:46.518Z,23.57
2019-05-26T15:50:16.723Z,23.66
2019-05-26T15:52:45.221Z,23.54
2019-05-26T15:55:13.949Z,23.19
2019-05-26T15:57:42.369Z,23.24
2019-05-26T16:00:11.096Z,22.91
2019-05-26T16:02:39.456Z,22.86
2019-05-26T16:05:08.235Z,23.18
2019-05-26T16:07:36.653Z,23.28
2019-05-26T16:10:08.591Z,23.04
2019-05-26T16:12:37.082Z,22.80
2019-05-26T16:15:07.569Z,22.71
2019-05-26T16:17:38.698Z,22.99
2019-05-26T16:20:08.244Z,23.16
2019-05-26T16:22:36.746Z,22.96
2019-05-26T16:25:08.150Z,23.13
2019-05-26T16:27:36.864Z,22.87
2019-05-26T16:30:07.513Z,22.95
2019-05-26T16:32:35.921Z,23.03
2019-05-26T16:35:04.892Z,23.07
2019-05-26T16:37:33.321Z,23.14
2019-05-26T16:40:01.773Z,22.94
2019-05-26T16:42:30.232Z,23.12
2019-05-26T16:44:58.648Z,23.03
2019-05-26T16:47:27.066Z,23.15
2019-05-26T16:49:55.506Z,22.93
2019-05-26T16:52:23.983Z,23.21
2019-05-26T16:54:55.269Z,23.32
2019-05-26T16:57:23.707Z,23.36
2019-05-26T16:59:52.160Z,23.30
2019-05-26T17:02:20.566Z,23.65
2019-05-26T17:04:48.990Z,23.86
2019-05-26T17:07:17.461Z,23.35
2019-05-26T17:09:45.832Z,23.85
2019-05-26T17:12:14.256Z,23.78
2019-05-26T17:14:42.687Z,23.99
2019-05-26T17:17:14.978Z,23.81
2019-05-26T17:19:41.332Z,24.22
2019-05-26T17:22:09.755Z,24.50
2019-05-26T17:24:38.176Z,23.99
2019-05-26T17:27:06.603Z,23.88
2019-05-26T17:29:35.160Z,24.02
2019-05-26T17:32:03.679Z,23.90
2019-05-26T17:34:32.099Z,24.04
2019-05-26T17:37:00.532Z,23.51
2019-05-26T17:39:28.955Z,23.37
2019-05-26T17:41:57.381Z,23.14
2019-05-26T17:44:25.806Z,22.91
2019-05-26T17:46:54.264Z,23.07
2019-05-26T17:49:22.712Z,23.12
2019-05-26T17:51:51.149Z,23.03
2019-05-26T17:54:19.570Z,23.16
2019-05-26T17:56:48.011Z,23.04
2019-05-26T17:59:16.417Z,22.90
2019-05-26T18:01:44.859Z,22.78
2019-05-26T18:04:13.268Z,23.12
2019-05-26T18:06:41.687Z,23.28
2019-05-26T18:09:10.246Z,23.09
2019-05-26T18:11:38.673Z,22.95
2019-05-26T18:14:07.152Z,22.98
2019-05-26T18:16:35.654Z,22.71
2019-05-26T18:19:05.263Z,22.75
2019-05-26T18:21:33.691Z,22.74
2019-05-26T18:24:02.121Z,22.60
2019-05-26T18:26:30.526Z,22.48
2019-05-26T18:28:58.983Z,22.60
2019-05-26T18:31:29.177Z,22.35
2019-05-26T18:33:57.609Z,22.57
2019-05-26T18:36:26.010Z,22.35
2019-05-26T18:38:54.439Z,22.36
2019-05-26T18:41:22.858Z,21.93
2019-05-26T18:43:51.360Z,22.11
2019-05-26T18:46:19.719Z,21.90
2019-05-26T18:48:48.153Z,22.01
2019-05-26T18:51:16.568Z,22.01
2019-05-26T18:53:45.759Z,22.04
2019-05-26T18:56:15.682Z,22.09
2019-05-26T18:58:44.115Z,22.04
2019-05-26T19:01:12.564Z,21.89
2019-05-26T19:03:41.041Z,21.71
2019-05-26T19:06:09.464Z,21.61
2019-05-26T19:08:37.889Z,21.39
2019-05-26T19:11:06.369Z,21.57
2019-05-26T19:13:34.833Z,21.20
2019-05-26T19:16:03.241Z,21.10
2019-05-26T19:18:31.669Z,21.29
2019-05-26T19:21:00.847Z,21.13
2019-05-26T19:23:30.518Z,21.27
2019-05-26T19:26:00.953Z,21.21
2019-05-26T19:28:29.095Z,21.50
2019-05-26T19:30:57.605Z,21.32
2019-05-26T19:33:26.033Z,21.00
2019-05-26T19:35:54.472Z,21.24
2019-05-26T19:38:22.883Z,21.14
2019-05-26T19:40:51.327Z,21.29
2019-05-26T19:43:19.762Z,21.25
2019-05-26T19:45:48.197Z,21.06
2019-05-26T19:48:16.620Z,21.06
2019-05-26T19:50:45.044Z,21.03
2019-05-26T19:53:13.580Z,20.88
2019-05-26T19:55:42.024Z,20.94
2019-05-26T19:58:10.441Z,20.79
2019-05-26T20:00:38.973Z,20.58
2019-05-26T20:03:07.463Z,20.30
2019-05-26T20:05:35.867Z,20.28
2019-05-26T20:08:04.530Z,20.29
2019-05-26T20:10:32.965Z,20.15
2019-05-26T20:13:03.126Z,20.21
2019-05-26T20:15:37.663Z,20.15
2019-05-26T20:18:05.465Z,20.13
2019-05-26T20:20:33.931Z,20.12
2019-05-26T20:23:02.410Z,20.10
2019-05-26T20:25:30.935Z,20.33
2019-05-26T20:27:59.363Z,19.98
2019-05-26T20:30:27.814Z,20.01
2019-05-26T20:32:56.251Z,20.03
2019-05-26T20:35:24.685Z,20.05
2019-05-26T20:37:53.087Z,20.08
2019-05-26T20:40:21.606Z,20.09
2019-05-26T20:42:50.069Z,19.98
2019-05-26T20:45:19.333Z,19.87
2019-05-26T20:47:47.750Z,19.92
2019-05-26T20:50:28.513Z,19.92
2019-05-26T20:52:46.747Z,19.88
2019-05-26T20:55:16.301Z,19.98
2019-05-26T20:57:44.804Z,19.83
2019-05-26T21:00:14.805Z,19.82
2019-05-26T21:02:43.516Z,19.59
2019-05-26T21:05:12.283Z,19.49
2019-05-26T21:07:40.719Z,19.39
2019-05-26T21:10:09.391Z,19.61
2019-05-26T21:12:37.834Z,19.58
2019-05-26T21:15:07.196Z,19.51
2019-05-26T21:17:36.627Z,19.29
2019-05-26T21:20:09.864Z,19.21
2019-05-26T21:22:38.380Z,19.06
2019-05-26T21:25:08.027Z,19.00
2019-05-26T21:27:39.479Z,19.20
2019-05-26T21:30:08.237Z,18.76
2019-05-26T21:32:36.698Z,18.91
2019-05-26T21:35:06.766Z,18.88
2019-05-26T21:37:35.312Z,18.74
2019-05-26T21:40:05.336Z,18.53
2019-05-26T21:42:33.771Z,18.37
2019-05-26T21:45:02.249Z,18.48
2019-05-26T21:47:30.687Z,18.79
2019-05-26T21:49:59.104Z,18.66
2019-05-26T21:52:27.582Z,18.70
2019-05-26T21:54:55.967Z,18.50
2019-05-26T21:57:24.400Z,18.55
2019-05-26T21:59:52.874Z,18.63
2019-05-26T22:02:21.364Z,18.95
2019-05-26T22:04:49.801Z,19.09
2019-05-26T22:07:18.220Z,19.15
2019-05-26T22:09:46.647Z,18.71
2019-05-26T22:12:15.095Z,19.01
2019-05-26T22:14:43.505Z,19.16
2019-05-26T22:17:11.918Z,19.30
2019-05-26T22:19:40.350Z,18.99
2019-05-26T22:22:08.761Z,18.86
2019-05-26T22:24:37.226Z,18.92
2019-05-26T22:27:05.709Z,18.68
2019-05-26T22:29:34.120Z,18.51
2019-05-26T22:32:02.605Z,18.68
2019-05-26T22:34:31.064Z,18.91
2019-05-26T22:36:59.460Z,18.88
2019-05-26T22:39:27.918Z,18.84
2019-05-26T22:41:56.351Z,18.89
2019-05-26T22:44:24.772Z,18.97
2019-05-26T22:46:53.260Z,18.99
2019-05-26T22:49:21.683Z,18.86
2019-05-26T22:51:50.101Z,18.83
2019-05-26T22:54:18.541Z,18.75
2019-05-26T22:56:46.937Z,18.87
2019-05-26T22:59:15.366Z,18.92
2019-05-26T23:01:43.796Z,18.80
2019-05-26T23:04:12.226Z,18.60
2019-05-26T23:06:40.654Z,18.44
2019-05-26T23:09:09.095Z,18.19
2019-05-26T23:11:37.515Z,18.00
2019-05-26T23:14:06.153Z,18.03
2019-05-26T23:16:34.665Z,18.02
2019-05-26T23:19:18.007Z,18.03
2019-05-26T23:21:33.275Z,18.19
2019-05-26T23:24:01.778Z,17.92
2019-05-26T23:26:30.219Z,17.94
2019-05-26T23:28:58.646Z,18.07
2019-05-26T23:31:27.069Z,17.93
2019-05-26T23:33:55.547Z,18.02
2019-05-26T23:36:23.997Z,18.17
2019-05-26T23:38:52.413Z,18.56
2019-05-26T23:41:20.857Z,18.21
2019-05-26T23:43:49.325Z,18.23
2019-05-26T23:46:17.727Z,17.95
2019-05-26T23:48:46.331Z,18.09
2019-05-26T23:51:14.762Z,17.81
2019-05-26T23:53:43.167Z,17.87
2019-05-26T23:56:11.728Z,17.73
2019-05-26T23:58:40.137Z,17.57
